createdAt,value
2022-07-25T00:04:19.000Z,68.32
2022-07-25T00:09:22.004Z,68.90
2022-07-25T00:14:26.341Z,68.76
2022-07-25T00:19:29.207Z,68.88
2022-07-25T00:24:32.174Z,68.31
2022-07-25T00:29:37.101Z,68.88
2022-07-25T00:34:39.912Z,69.07
2022-07-25T00:39:42.836Z,69.17
2022-07-25T00:44:47.114Z,70.28
2022-07-25T00:49:49.934Z,69.82
2022-07-25T00:54:52.833Z,70.33
2022-07-25T00:59:56.964Z,70.65
2022-07-25T01:04:59.810Z,70.25
2022-07-25T01:10:03.069Z,70.73
2022-07-25T01:15:08.478Z,70.96
2022-07-25T01:20:16.652Z,70.28
2022-07-25T01:25:20.296Z,69.98
2022-07-25T01:30:24.210Z,68.87
2022-07-25T01:35:28.410Z,68.43
2022-07-25T01:40:31.221Z,67.64
2022-07-25T01:45:34.124Z,65.80
2022-07-25T01:50:38.457Z,65.83
2022-07-25T01:55:41.427Z,66.52
2022-07-25T02:00:44.295Z,65.71
2022-07-25T02:05:48.482Z,65.54
2022-07-25T02:10:51.485Z,64.99
2022-07-25T02:15:54.449Z,64.03
2022-07-25T02:20:58.632Z,64.50
2022-07-25T02:26:01.446Z,64.26
2022-07-25T02:31:04.584Z,64.70
2022-07-25T02:36:10.268Z,64.53
2022-07-25T02:41:13.137Z,64.90
2022-07-25T02:46:16.009Z,64.55
2022-07-25T02:51:20.226Z,65.21
2022-07-25T02:56:23.078Z,64.88
2022-07-25T03:01:26.879Z,64.53
2022-07-25T03:06:31.234Z,65.56
2022-07-25T03:11:34.765Z,65.68
2022-07-25T03:16:37.872Z,66.17
2022-07-25T03:21:42.120Z,66.20
2022-07-25T03:26:44.913Z,66.12
2022-07-25T03:31:48.422Z,65.28
2022-07-25T03:36:52.718Z,64.50
2022-07-25T03:41:56.248Z,64.32
2022-07-25T03:46:59.110Z,63.63
2022-07-25T03:52:03.757Z,63.81
2022-07-25T03:57:06.607Z,63.86
2022-07-25T04:02:09.640Z,62.92
2022-07-25T04:07:14.134Z,62.46
2022-07-25T04:12:17.145Z,62.21
2022-07-25T04:17:20.098Z,62.24
2022-07-25T04:22:25.271Z,61.63
2022-07-25T04:27:28.261Z,61.23
2022-07-25T04:32:31.161Z,60.54
2022-07-25T04:37:36.085Z,59.71
2022-07-25T04:42:38.951Z,59.79
2022-07-25T04:47:41.789Z,59.18
2022-07-25T04:52:46.021Z,58.23
2022-07-25T04:57:48.920Z,58.67
2022-07-25T05:02:52.537Z,58.28
2022-07-25T05:07:59.051Z,58.50
2022-07-25T05:13:01.943Z,57.72
2022-07-25T05:18:05.022Z,57.72
2022-07-25T05:23:09.409Z,56.43
2022-07-25T05:28:14.782Z,56.42
2022-07-25T05:33:17.974Z,55.34
2022-07-25T05:38:22.218Z,55.33
2022-07-25T05:43:25.080Z,55.11
2022-07-25T05:48:28.019Z,54.15
2022-07-25T05:53:32.607Z,54.17
2022-07-25T05:58:37.175Z,53.67
2022-07-25T06:03:40.186Z,53.10
2022-07-25T06:08:44.333Z,51.53
2022-07-25T06:13:48.256Z,49.77
2022-07-25T06:18:51.177Z,47.59
2022-07-25T06:23:55.742Z,47.96
2022-07-25T06:28:58.701Z,48.64
2022-07-25T06:34:01.592Z,47.02
2022-07-25T06:39:05.755Z,44.87
2022-07-25T06:44:08.856Z,40.67
2022-07-25T06:49:12.056Z,35.71
2022-07-25T06:54:16.257Z,36.26
2022-07-25T06:59:19.134Z,37.84
2022-07-25T07:04:21.969Z,39.29
2022-07-25T07:09:26.136Z,39.71
2022-07-25T07:14:29.200Z,36.36
2022-07-25T07:19:32.074Z,35.08
2022-07-25T07:24:42.843Z,33.32
2022-07-25T07:29:47.227Z,29.68
2022-07-25T07:34:50.233Z,25.47
2022-07-25T07:39:54.468Z,25.41
2022-07-25T07:44:57.305Z,24.55
2022-07-25T07:50:00.126Z,24.94
2022-07-25T07:55:22.175Z,25.77
2022-07-25T08:00:27.863Z,23.41
2022-07-25T08:05:31.940Z,23.14
2022-07-25T08:10:39.882Z,22.49
2022-07-25T08:15:43.114Z,23.51
2022-07-25T08:20:46.580Z,23.53
2022-07-25T08:25:51.138Z,25.34
2022-07-25T08:30:54.364Z,25.63
2022-07-25T08:35:58.944Z,25.30
2022-07-25T08:41:04.221Z,28.52
2022-07-25T08:46:08.228Z,29.88
2022-07-25T08:51:11.759Z,29.64
2022-07-25T08:56:20.825Z,31.02
2022-07-25T09:01:24.120Z,31.00
2022-07-25T09:06:27.044Z,31.34
2022-07-25T09:11:33.372Z,31.61
2022-07-25T09:16:40.389Z,32.70
2022-07-25T09:21:46.072Z,33.36
2022-07-25T09:26:52.688Z,33.73
2022-07-25T09:31:56.380Z,33.14
2022-07-25T09:36:59.331Z,32.91
2022-07-25T09:42:04.107Z,33.22
2022-07-25T09:47:11.551Z,33.17
2022-07-25T09:52:14.559Z,32.50
2022-07-25T09:57:18.850Z,32.95
2022-07-25T10:02:34.114Z,31.92
2022-07-25T10:07:39.566Z,32.68
2022-07-25T10:12:44.172Z,32.74
2022-07-25T10:17:48.580Z,32.86
2022-07-25T10:22:56.746Z,32.74
2022-07-25T10:28:10.160Z,32.73
2022-07-25T10:33:15.124Z,32.54
2022-07-25T10:38:25.620Z,32.47
2022-07-25T10:43:29.878Z,33.81
2022-07-25T10:48:34.075Z,33.20
2022-07-25T10:53:39.339Z,32.99
2022-07-25T10:58:48.647Z,33.71
2022-07-25T11:03:52.204Z,33.69
2022-07-25T11:08:57.754Z,34.12
2022-07-25T11:14:01.998Z,34.31
2022-07-25T11:19:05.263Z,34.70
2022-07-25T11:24:08.534Z,33.83
2022-07-25T11:29:19.750Z,34.29
2022-07-25T11:34:24.622Z,34.33
2022-07-25T11:39:28.920Z,34.04
2022-07-25T11:44:34.927Z,33.13
2022-07-25T11:49:48.927Z,33.00
2022-07-25T11:54:56.103Z,33.28
2022-07-25T12:00:02.396Z,32.63
2022-07-25T12:05:13.739Z,32.47
2022-07-25T12:10:18.814Z,32.33
2022-07-25T12:15:24.877Z,32.43
2022-07-25T12:20:29.800Z,32.22
2022-07-25T12:25:33.860Z,32.79
2022-07-25T12:30:39.008Z,32.60
2022-07-25T12:35:42.534Z,32.65
2022-07-25T12:40:45.688Z,33.87
2022-07-25T12:45:49.886Z,32.77
2022-07-25T12:50:52.768Z,32.95
2022-07-25T12:55:55.722Z,33.96
2022-07-25T13:01:01.296Z,34.17
2022-07-25T13:06:06.864Z,35.01
2022-07-25T13:11:09.661Z,34.38
2022-07-25T13:16:14.559Z,34.05
2022-07-25T13:21:18.662Z,34.36
2022-07-25T13:26:21.516Z,34.57
2022-07-25T13:31:25.845Z,34.65
2022-07-25T13:36:29.030Z,34.65
2022-07-25T13:41:31.879Z,35.24
2022-07-25T13:46:36.267Z,35.02
2022-07-25T13:51:39.085Z,35.36
2022-07-25T13:56:42.466Z,35.44
2022-07-25T14:01:47.466Z,37.17
2022-07-25T14:06:52.085Z,39.21
2022-07-25T14:11:55.193Z,41.08
2022-07-25T14:16:59.411Z,43.73
2022-07-25T14:22:02.351Z,47.81
2022-07-25T14:27:05.730Z,49.90
2022-07-25T14:32:10.030Z,50.82
2022-07-25T14:37:13.013Z,52.24
2022-07-25T14:42:16.267Z,52.41
2022-07-25T14:47:20.644Z,53.20
2022-07-25T14:52:23.958Z,54.63
2022-07-25T14:57:27.366Z,56.38
2022-07-25T15:02:32.247Z,58.86
2022-07-25T15:07:38.122Z,60.40
2022-07-25T15:12:40.978Z,62.08
2022-07-25T15:17:45.331Z,63.64
2022-07-25T15:22:48.066Z,66.74
2022-07-25T15:27:50.962Z,68.42
2022-07-25T15:32:55.115Z,71.65
2022-07-25T15:37:58.844Z,79.06
2022-07-25T15:43:01.624Z,88.10
2022-07-25T15:48:07.861Z,99.67
2022-07-25T15:53:11.519Z,100.00
2022-07-25T15:58:14.839Z,100.00
2022-07-25T16:03:18.984Z,97.71
2022-07-25T16:08:22.015Z,98.21
2022-07-25T16:13:24.825Z,100.00
2022-07-25T16:18:29.048Z,100.00
2022-07-25T16:23:36.198Z,100.00
2022-07-25T16:28:41.327Z,99.48
2022-07-25T16:33:46.171Z,96.32
2022-07-25T16:38:49.204Z,93.16
2022-07-25T16:43:52.086Z,92.10
2022-07-25T16:48:56.498Z,90.80
2022-07-25T16:53:59.862Z,88.96
2022-07-25T16:59:02.963Z,93.53
2022-07-25T17:04:07.932Z,92.58
2022-07-25T17:09:11.677Z,90.02
2022-07-25T17:14:14.553Z,86.21
2022-07-25T17:19:18.781Z,89.44
2022-07-25T17:24:21.587Z,90.52
2022-07-25T17:29:24.612Z,87.95
2022-07-25T17:34:28.834Z,86.91
2022-07-25T17:39:31.657Z,89.75
2022-07-25T17:44:34.745Z,88.72
2022-07-25T17:49:38.901Z,90.02
2022-07-25T17:54:42.445Z,91.17
2022-07-25T17:59:45.287Z,92.03
2022-07-25T18:04:49.598Z,95.93
2022-07-25T18:09:52.883Z,95.64
2022-07-25T18:14:55.793Z,92.38
2022-07-25T18:19:59.952Z,94.34
2022-07-25T18:25:02.848Z,92.82
2022-07-25T18:30:07.952Z,93.41
2022-07-25T18:35:13.100Z,92.75
2022-07-25T18:40:16.556Z,92.45
2022-07-25T18:45:19.565Z,93.27
2022-07-25T18:50:25.210Z,94.20
2022-07-25T18:55:28.116Z,93.94
2022-07-25T19:00:30.920Z,95.46
2022-07-25T19:05:35.424Z,97.42
2022-07-25T19:10:38.420Z,96.05
2022-07-25T19:15:41.349Z,97.58
2022-07-25T19:20:45.704Z,98.73
2022-07-25T19:25:49.465Z,100.00
2022-07-25T19:30:52.770Z,100.00
2022-07-25T19:35:57.022Z,100.00
2022-07-25T19:41:00.751Z,100.00
2022-07-25T19:46:04.088Z,100.00
2022-07-25T19:51:08.536Z,100.00
2022-07-25T19:56:11.449Z,100.00
2022-07-25T20:01:14.624Z,100.00
2022-07-25T20:06:20.519Z,100.00
2022-07-25T20:11:23.434Z,100.00
2022-07-25T20:16:26.339Z,100.00
2022-07-25T20:21:30.894Z,100.00
2022-07-25T20:26:33.853Z,100.00
2022-07-25T20:31:36.926Z,100.00
2022-07-25T20:36:41.403Z,99.23
2022-07-25T20:41:44.673Z,99.47
2022-07-25T20:46:47.928Z,97.67
2022-07-25T20:51:54.564Z,96.71
2022-07-25T20:56:57.739Z,95.73
2022-07-25T21:02:00.951Z,94.91
2022-07-25T21:07:05.698Z,94.74
2022-07-25T21:12:10.669Z,95.43
2022-07-25T21:17:13.598Z,94.99
2022-07-25T21:22:17.914Z,95.96
2022-07-25T21:27:21.353Z,96.38
2022-07-25T21:32:24.179Z,97.36
2022-07-25T21:37:28.425Z,97.27
2022-07-25T21:42:31.414Z,98.09
2022-07-25T21:47:34.341Z,97.82
2022-07-25T21:52:38.563Z,97.40
2022-07-25T21:57:41.415Z,96.90
2022-07-25T22:02:45.031Z,97.47
2022-07-25T22:07:49.388Z,96.64
2022-07-25T22:12:52.555Z,97.01
2022-07-25T22:17:55.439Z,97.30
2022-07-25T22:23:00.088Z,97.87
2022-07-25T22:28:02.911Z,96.69
2022-07-25T22:33:05.755Z,94.72
2022-07-25T22:38:10.065Z,94.67
2022-07-25T22:43:12.872Z,94.03
2022-07-25T22:48:15.707Z,93.79
2022-07-25T22:53:19.883Z,93.80
2022-07-25T22:58:22.672Z,93.93
2022-07-25T23:03:25.521Z,93.23
2022-07-25T23:08:35.666Z,93.50
2022-07-25T23:13:38.512Z,94.34
2022-07-25T23:18:41.343Z,91.89
2022-07-25T23:23:45.806Z,91.49
2022-07-25T23:28:48.652Z,90.81
2022-07-25T23:33:51.464Z,95.53
2022-07-25T23:38:55.590Z,98.46
2022-07-25T23:44:00.494Z,100.00
2022-07-25T23:49:03.397Z,99.65
2022-07-25T23:54:07.749Z,100.00
2022-07-25T23:59:11.191Z,100.00
